sensor_id;sensor_type;location;lat;lon;timestamp;temperature;humidity
44513;DHT22;30219;50.588;9.504;2022-09-29T00:00:27;7.60;99.90
44513;DHT22;30219;50.588;9.504;2022-09-29T00:02:53;7.70;99.90
44513;DHT22;30219;50.588;9.504;2022-09-29T00:05:18;7.60;99.90
44513;DHT22;30219;50.588;9.504;2022-09-29T00:07:44;7.60;99.90
44513;DHT22;30219;50.588;9.504;2022-09-29T00:10:10;7.60;99.90
44513;DHT22;30219;50.588;9.504;2022-09-29T00:12:36;7.60;99.90
44513;DHT22;30219;50.588;9.504;2022-09-29T00:15:02;7.60;99.90
44513;DHT22;30219;50.588;9.504;2022-09-29T00:17:28;7.60;99.90
44513;DHT22;30219;50.588;9.504;2022-09-29T00:19:53;7.60;99.90
44513;DHT22;30219;50.588;9.504;2022-09-29T00:22:19;7.70;99.90
44513;DHT22;30219;50.588;9.504;2022-09-29T00:24:46;7.70;99.90
44513;DHT22;30219;50.588;9.504;2022-09-29T00:27:17;7.70;99.90
44513;DHT22;30219;50.588;9.504;2022-09-29T00:29:43;7.70;99.90
44513;DHT22;30219;50.588;9.504;2022-09-29T00:32:08;7.70;99.90
44513;DHT22;30219;50.588;9.504;2022-09-29T00:34:34;7.70;99.90
44513;DHT22;30219;50.588;9.504;2022-09-29T00:36:59;7.60;99.90
44513;DHT22;30219;50.588;9.504;2022-09-29T00:39:25;7.60;99.90
44513;DHT22;30219;50.588;9.504;2022-09-29T00:41:51;7.60;99.90
44513;DHT22;30219;50.588;9.504;2022-09-29T00:46:56;7.60;99.90
44513;DHT22;30219;50.588;9.504;2022-09-29T00:49:42;7.60;99.90
44513;DHT22;30219;50.588;9.504;2022-09-29T00:52:19;7.60;99.90
44513;DHT22;30219;50.588;9.504;2022-09-29T00:54:58;7.50;99.90
44513;DHT22;30219;50.588;9.504;2022-09-29T00:57:32;7.50;99.90
44513;DHT22;30219;50.588;9.504;2022-09-29T01:00:06;7.40;99.90
44513;DHT22;30219;50.588;9.504;2022-09-29T01:02:39;7.40;99.90
44513;DHT22;30219;50.588;9.504;2022-09-29T01:05:08;7.40;99.90
44513;DHT22;30219;50.588;9.504;2022-09-29T01:07:35;7.40;99.90
44513;DHT22;30219;50.588;9.504;2022-09-29T01:10:02;7.30;99.90
44513;DHT22;30219;50.588;9.504;2022-09-29T01:12:27;7.30;99.90
44513;DHT22;30219;50.588;9.504;2022-09-29T01:14:54;7.30;99.90
44513;DHT22;30219;50.588;9.504;2022-09-29T01:17:20;7.30;99.90
44513;DHT22;30219;50.588;9.504;2022-09-29T01:22:47;7.20;99.90
44513;DHT22;30219;50.588;9.504;2022-09-29T01:33:45;7.10;99.90
44513;DHT22;30219;50.588;9.504;2022-09-29T01:36:37;7.00;99.90
44513;DHT22;30219;50.588;9.504;2022-09-29T01:39:13;6.90;99.90
44513;DHT22;30219;50.588;9.504;2022-09-29T01:41:48;6.90;99.90
44513;DHT22;30219;50.588;9.504;2022-09-29T01:47:15;6.80;99.90
44513;DHT22;30219;50.588;9.504;2022-09-29T01:49:46;6.70;99.90
44513;DHT22;30219;50.588;9.504;2022-09-29T01:52:19;6.70;99.90
44513;DHT22;30219;50.588;9.504;2022-09-29T01:54:58;6.70;99.90
44513;DHT22;30219;50.588;9.504;2022-09-29T01:57:34;6.60;99.90
44513;DHT22;30219;50.588;9.504;2022-09-29T02:00:10;6.40;99.90
44513;DHT22;30219;50.588;9.504;2022-09-29T02:02:49;6.40;99.90
44513;DHT22;30219;50.588;9.504;2022-09-29T02:05:24;6.40;99.90
44513;DHT22;30219;50.588;9.504;2022-09-29T02:07:52;6.40;99.90
44513;DHT22;30219;50.588;9.504;2022-09-29T02:10:25;6.30;99.90
44513;DHT22;30219;50.588;9.504;2022-09-29T02:12:55;6.30;99.90
44513;DHT22;30219;50.588;9.504;2022-09-29T02:15:26;6.20;99.90
44513;DHT22;30219;50.588;9.504;2022-09-29T02:17:53;6.10;99.90
44513;DHT22;30219;50.588;9.504;2022-09-29T02:20:20;6.10;99.90
44513;DHT22;30219;50.588;9.504;2022-09-29T02:22:47;6.00;99.90
44513;DHT22;30219;50.588;9.504;2022-09-29T02:25:16;5.90;99.90
44513;DHT22;30219;50.588;9.504;2022-09-29T02:27:44;5.90;99.90
44513;DHT22;30219;50.588;9.504;2022-09-29T02:30:12;6.00;99.90
44513;DHT22;30219;50.588;9.504;2022-09-29T02:32:38;6.00;99.90
44513;DHT22;30219;50.588;9.504;2022-09-29T02:35:06;6.00;99.90
44513;DHT22;30219;50.588;9.504;2022-09-29T02:38:02;6.00;99.90
44513;DHT22;30219;50.588;9.504;2022-09-29T02:43:49;5.90;99.90
44513;DHT22;30219;50.588;9.504;2022-09-29T02:51:56;5.80;99.90
44513;DHT22;30219;50.588;9.504;2022-09-29T02:54:34;5.80;99.90
44513;DHT22;30219;50.588;9.504;2022-09-29T02:59:52;5.90;99.90
44513;DHT22;30219;50.588;9.504;2022-09-29T03:02:25;5.80;99.90
44513;DHT22;30219;50.588;9.504;2022-09-29T03:04:51;5.80;99.90
44513;DHT22;30219;50.588;9.504;2022-09-29T03:07:18;5.90;99.90
44513;DHT22;30219;50.588;9.504;2022-09-29T03:09:43;5.90;99.90
44513;DHT22;30219;50.588;9.504;2022-09-29T03:12:09;5.90;99.90
44513;DHT22;30219;50.588;9.504;2022-09-29T03:14:34;5.90;99.90
44513;DHT22;30219;50.588;9.504;2022-09-29T03:17:00;5.80;99.90
44513;DHT22;30219;50.588;9.504;2022-09-29T03:19:25;5.80;99.90
44513;DHT22;30219;50.588;9.504;2022-09-29T03:21:51;5.90;99.90
44513;DHT22;30219;50.588;9.504;2022-09-29T03:24:16;5.90;99.90
44513;DHT22;30219;50.588;9.504;2022-09-29T03:26:42;5.90;99.90
44513;DHT22;30219;50.588;9.504;2022-09-29T03:29:08;6.00;99.90
44513;DHT22;30219;50.588;9.504;2022-09-29T03:31:33;6.00;99.90
44513;DHT22;30219;50.588;9.504;2022-09-29T03:33:59;6.00;99.90
44513;DHT22;30219;50.588;9.504;2022-09-29T03:36:24;6.10;99.90
44513;DHT22;30219;50.588;9.504;2022-09-29T03:38:50;6.00;99.90
44513;DHT22;30219;50.588;9.504;2022-09-29T03:41:15;6.00;99.90
44513;DHT22;30219;50.588;9.504;2022-09-29T03:43:41;5.90;99.90
44513;DHT22;30219;50.588;9.504;2022-09-29T03:46:07;5.90;99.90
44513;DHT22;30219;50.588;9.504;2022-09-29T03:48:32;6.00;99.90
44513;DHT22;30219;50.588;9.504;2022-09-29T03:50:59;5.90;99.90
44513;DHT22;30219;50.588;9.504;2022-09-29T03:53:25;5.90;99.90
44513;DHT22;30219;50.588;9.504;2022-09-29T03:55:51;6.00;99.90
44513;DHT22;30219;50.588;9.504;2022-09-29T03:58:17;6.00;99.90
44513;DHT22;30219;50.588;9.504;2022-09-29T04:00:43;6.00;99.90
44513;DHT22;30219;50.588;9.504;2022-09-29T04:03:09;6.00;99.90
44513;DHT22;30219;50.588;9.504;2022-09-29T04:05:34;6.10;99.90
44513;DHT22;30219;50.588;9.504;2022-09-29T04:08:06;6.10;99.90
44513;DHT22;30219;50.588;9.504;2022-09-29T04:10:36;6.10;99.90
44513;DHT22;30219;50.588;9.504;2022-09-29T04:13:03;6.10;99.90
44513;DHT22;30219;50.588;9.504;2022-09-29T04:15:28;6.20;99.90
44513;DHT22;30219;50.588;9.504;2022-09-29T04:17:54;6.10;99.90
44513;DHT22;30219;50.588;9.504;2022-09-29T04:20:20;6.10;99.90
44513;DHT22;30219;50.588;9.504;2022-09-29T04:22:45;6.20;99.90
44513;DHT22;30219;50.588;9.504;2022-09-29T04:25:11;6.10;99.90
44513;DHT22;30219;50.588;9.504;2022-09-29T04:27:37;6.20;99.90
44513;DHT22;30219;50.588;9.504;2022-09-29T04:30:03;6.20;99.90
44513;DHT22;30219;50.588;9.504;2022-09-29T04:32:29;6.20;99.90
44513;DHT22;30219;50.588;9.504;2022-09-29T04:34:54;6.20;99.90
44513;DHT22;30219;50.588;9.504;2022-09-29T04:37:20;6.20;99.90
44513;DHT22;30219;50.588;9.504;2022-09-29T04:39:46;6.20;99.90
44513;DHT22;30219;50.588;9.504;2022-09-29T04:42:11;6.30;99.90
44513;DHT22;30219;50.588;9.504;2022-09-29T04:44:37;6.30;99.90
44513;DHT22;30219;50.588;9.504;2022-09-29T04:47:02;6.30;99.90
44513;DHT22;30219;50.588;9.504;2022-09-29T04:49:28;6.30;99.90
44513;DHT22;30219;50.588;9.504;2022-09-29T04:51:53;6.20;99.90
44513;DHT22;30219;50.588;9.504;2022-09-29T04:54:19;6.20;99.90
44513;DHT22;30219;50.588;9.504;2022-09-29T04:56:47;6.20;99.90
44513;DHT22;30219;50.588;9.504;2022-09-29T04:59:13;6.20;99.90
44513;DHT22;30219;50.588;9.504;2022-09-29T05:01:39;6.30;99.90
44513;DHT22;30219;50.588;9.504;2022-09-29T05:04:04;6.30;99.90
44513;DHT22;30219;50.588;9.504;2022-09-29T05:06:30;6.30;99.90
44513;DHT22;30219;50.588;9.504;2022-09-29T05:08:56;6.30;99.90
44513;DHT22;30219;50.588;9.504;2022-09-29T05:11:21;6.30;99.90
44513;DHT22;30219;50.588;9.504;2022-09-29T05:13:48;6.30;99.90
44513;DHT22;30219;50.588;9.504;2022-09-29T05:16:15;6.30;99.90
44513;DHT22;30219;50.588;9.504;2022-09-29T05:18:41;6.30;99.90
44513;DHT22;30219;50.588;9.504;2022-09-29T05:21:08;6.30;99.90
44513;DHT22;30219;50.588;9.504;2022-09-29T05:23:34;6.30;99.90
44513;DHT22;30219;50.588;9.504;2022-09-29T05:26:04;6.30;99.90
44513;DHT22;30219;50.588;9.504;2022-09-29T05:28:31;6.30;99.90
44513;DHT22;30219;50.588;9.504;2022-09-29T05:31:01;6.30;99.90
44513;DHT22;30219;50.588;9.504;2022-09-29T05:33:27;6.30;99.90
44513;DHT22;30219;50.588;9.504;2022-09-29T05:35:54;6.30;99.90
44513;DHT22;30219;50.588;9.504;2022-09-29T05:38:19;6.40;99.90
44513;DHT22;30219;50.588;9.504;2022-09-29T05:40:45;6.50;99.90
44513;DHT22;30219;50.588;9.504;2022-09-29T05:43:10;6.50;99.90
44513;DHT22;30219;50.588;9.504;2022-09-29T05:45:36;6.50;99.90
44513;DHT22;30219;50.588;9.504;2022-09-29T05:48:02;6.40;99.90
44513;DHT22;30219;50.588;9.504;2022-09-29T05:50:27;6.40;99.90
44513;DHT22;30219;50.588;9.504;2022-09-29T05:52:53;6.50;99.90
44513;DHT22;30219;50.588;9.504;2022-09-29T05:55:19;6.50;99.90
44513;DHT22;30219;50.588;9.504;2022-09-29T05:57:48;6.50;99.90
44513;DHT22;30219;50.588;9.504;2022-09-29T06:00:14;6.50;99.90
44513;DHT22;30219;50.588;9.504;2022-09-29T06:02:40;6.50;99.90
44513;DHT22;30219;50.588;9.504;2022-09-29T06:05:05;6.60;99.90
44513;DHT22;30219;50.588;9.504;2022-09-29T06:07:31;6.60;99.90
44513;DHT22;30219;50.588;9.504;2022-09-29T06:09:57;6.60;99.90
44513;DHT22;30219;50.588;9.504;2022-09-29T06:12:22;6.70;99.90
44513;DHT22;30219;50.588;9.504;2022-09-29T06:14:48;6.80;99.90
44513;DHT22;30219;50.588;9.504;2022-09-29T06:17:13;6.90;99.90
44513;DHT22;30219;50.588;9.504;2022-09-29T06:19:39;6.80;99.90
44513;DHT22;30219;50.588;9.504;2022-09-29T06:22:05;6.80;99.90
44513;DHT22;30219;50.588;9.504;2022-09-29T06:24:30;6.80;99.90
44513;DHT22;30219;50.588;9.504;2022-09-29T06:26:56;6.90;99.90
44513;DHT22;30219;50.588;9.504;2022-09-29T06:29:21;7.00;99.90
44513;DHT22;30219;50.588;9.504;2022-09-29T06:31:47;7.20;99.90
44513;DHT22;30219;50.588;9.504;2022-09-29T06:34:13;7.20;99.90
44513;DHT22;30219;50.588;9.504;2022-09-29T06:36:43;7.30;99.90
44513;DHT22;30219;50.588;9.504;2022-09-29T06:39:28;7.40;99.90
44513;DHT22;30219;50.588;9.504;2022-09-29T06:41:54;7.50;99.90
44513;DHT22;30219;50.588;9.504;2022-09-29T06:44:25;7.60;99.90
44513;DHT22;30219;50.588;9.504;2022-09-29T06:46:51;7.70;99.90
44513;DHT22;30219;50.588;9.504;2022-09-29T06:49:18;7.90;99.90
44513;DHT22;30219;50.588;9.504;2022-09-29T06:51:43;8.10;99.90
44513;DHT22;30219;50.588;9.504;2022-09-29T06:54:11;8.20;99.90
44513;DHT22;30219;50.588;9.504;2022-09-29T06:56:36;8.20;99.90
44513;DHT22;30219;50.588;9.504;2022-09-29T06:59:02;8.40;99.90
44513;DHT22;30219;50.588;9.504;2022-09-29T07:01:28;8.40;99.90
44513;DHT22;30219;50.588;9.504;2022-09-29T07:03:53;8.50;99.90
44513;DHT22;30219;50.588;9.504;2022-09-29T07:06:19;8.60;99.90
44513;DHT22;30219;50.588;9.504;2022-09-29T07:08:44;8.80;99.90
44513;DHT22;30219;50.588;9.504;2022-09-29T07:11:10;8.80;99.90
44513;DHT22;30219;50.588;9.504;2022-09-29T07:13:36;8.70;99.90
44513;DHT22;30219;50.588;9.504;2022-09-29T07:16:07;8.80;99.90
44513;DHT22;30219;50.588;9.504;2022-09-29T07:18:34;8.80;99.90
44513;DHT22;30219;50.588;9.504;2022-09-29T07:21:03;8.80;99.90
44513;DHT22;30219;50.588;9.504;2022-09-29T07:23:28;8.90;99.90
44513;DHT22;30219;50.588;9.504;2022-09-29T07:25:55;9.20;99.90
44513;DHT22;30219;50.588;9.504;2022-09-29T07:28:21;9.90;99.90
44513;DHT22;30219;50.588;9.504;2022-09-29T07:30:46;10.70;99.90
44513;DHT22;30219;50.588;9.504;2022-09-29T07:33:12;11.60;99.90
44513;DHT22;30219;50.588;9.504;2022-09-29T07:35:37;12.20;99.90
44513;DHT22;30219;50.588;9.504;2022-09-29T07:38:03;12.70;99.90
44513;DHT22;30219;50.588;9.504;2022-09-29T07:40:28;13.30;99.90
44513;DHT22;30219;50.588;9.504;2022-09-29T07:42:55;13.70;99.90
44513;DHT22;30219;50.588;9.504;2022-09-29T07:45:20;13.90;99.90
44513;DHT22;30219;50.588;9.504;2022-09-29T07:47:46;14.20;99.90
44513;DHT22;30219;50.588;9.504;2022-09-29T07:50:12;14.60;99.90
44513;DHT22;30219;50.588;9.504;2022-09-29T07:52:37;14.90;99.90
44513;DHT22;30219;50.588;9.504;2022-09-29T07:55:04;15.30;99.90
44513;DHT22;30219;50.588;9.504;2022-09-29T07:57:30;15.40;99.90
44513;DHT22;30219;50.588;9.504;2022-09-29T07:59:55;15.60;99.90
44513;DHT22;30219;50.588;9.504;2022-09-29T08:02:23;15.50;99.90
44513;DHT22;30219;50.588;9.504;2022-09-29T08:04:49;15.60;99.90
44513;DHT22;30219;50.588;9.504;2022-09-29T08:07:14;15.90;99.90
44513;DHT22;30219;50.588;9.504;2022-09-29T08:09:40;15.50;99.90
44513;DHT22;30219;50.588;9.504;2022-09-29T08:12:06;15.50;99.90
44513;DHT22;30219;50.588;9.504;2022-09-29T08:14:32;15.90;99.90
44513;DHT22;30219;50.588;9.504;2022-09-29T08:16:58;16.30;99.90
44513;DHT22;30219;50.588;9.504;2022-09-29T08:19:23;16.70;99.90
44513;DHT22;30219;50.588;9.504;2022-09-29T08:21:50;16.60;99.90
44513;DHT22;30219;50.588;9.504;2022-09-29T08:24:15;16.50;99.90
44513;DHT22;30219;50.588;9.504;2022-09-29T08:26:44;16.70;99.90
44513;DHT22;30219;50.588;9.504;2022-09-29T08:29:11;17.20;99.90
44513;DHT22;30219;50.588;9.504;2022-09-29T08:31:37;17.30;99.30
44513;DHT22;30219;50.588;9.504;2022-09-29T08:34:02;17.40;99.30
44513;DHT22;30219;50.588;9.504;2022-09-29T08:36:28;17.80;99.40
44513;DHT22;30219;50.588;9.504;2022-09-29T08:38:55;18.30;98.70
44513;DHT22;30219;50.588;9.504;2022-09-29T08:43:47;18.90;96.90
44513;DHT22;30219;50.588;9.504;2022-09-29T08:46:37;19.10;97.00
44513;DHT22;30219;50.588;9.504;2022-09-29T08:49:10;19.30;96.00
44513;DHT22;30219;50.588;9.504;2022-09-29T08:51:44;19.50;95.00
44513;DHT22;30219;50.588;9.504;2022-09-29T08:54:33;19.80;95.30
44513;DHT22;30219;50.588;9.504;2022-09-29T08:57:00;20.00;95.10
44513;DHT22;30219;50.588;9.504;2022-09-29T08:59:27;20.20;92.90
44513;DHT22;30219;50.588;9.504;2022-09-29T09:02:02;20.30;93.10
44513;DHT22;30219;50.588;9.504;2022-09-29T09:04:56;20.50;92.40
44513;DHT22;30219;50.588;9.504;2022-09-29T09:10:38;19.70;93.40
44513;DHT22;30219;50.588;9.504;2022-09-29T09:22:19;19.80;90.90
44513;DHT22;30219;50.588;9.504;2022-09-29T09:24:47;19.30;91.60
44513;DHT22;30219;50.588;9.504;2022-09-29T09:27:21;18.50;92.30
44513;DHT22;30219;50.588;9.504;2022-09-29T09:29:49;18.20;93.00
44513;DHT22;30219;50.588;9.504;2022-09-29T09:32:27;17.80;93.90
44513;DHT22;30219;50.588;9.504;2022-09-29T09:35:22;17.90;94.50
44513;DHT22;30219;50.588;9.504;2022-09-29T09:37:49;18.30;94.40
44513;DHT22;30219;50.588;9.504;2022-09-29T09:40:28;18.50;93.40
44513;DHT22;30219;50.588;9.504;2022-09-29T09:45:36;18.00;93.70
44513;DHT22;30219;50.588;9.504;2022-09-29T09:48:12;17.50;94.30
44513;DHT22;30219;50.588;9.504;2022-09-29T09:50:40;16.90;94.60
44513;DHT22;30219;50.588;9.504;2022-09-29T09:53:11;16.70;94.70
44513;DHT22;30219;50.588;9.504;2022-09-29T09:55:39;16.40;95.90
44513;DHT22;30219;50.588;9.504;2022-09-29T10:01:02;16.70;95.50
44513;DHT22;30219;50.588;9.504;2022-09-29T10:03:28;16.70;95.60
44513;DHT22;30219;50.588;9.504;2022-09-29T10:05:54;16.60;95.00
44513;DHT22;30219;50.588;9.504;2022-09-29T10:08:31;16.40;95.30
44513;DHT22;30219;50.588;9.504;2022-09-29T10:11:02;16.40;96.30
44513;DHT22;30219;50.588;9.504;2022-09-29T10:13:44;16.60;96.70
44513;DHT22;30219;50.588;9.504;2022-09-29T10:16:15;16.90;96.30
44513;DHT22;30219;50.588;9.504;2022-09-29T10:18:44;17.10;95.80
44513;DHT22;30219;50.588;9.504;2022-09-29T10:23:55;17.30;94.70
44513;DHT22;30219;50.588;9.504;2022-09-29T10:26:23;16.80;94.80
44513;DHT22;30219;50.588;9.504;2022-09-29T10:28:56;16.00;95.10
44513;DHT22;30219;50.588;9.504;2022-09-29T10:31:29;15.30;95.80
44513;DHT22;30219;50.588;9.504;2022-09-29T10:36:55;14.50;97.50
44513;DHT22;30219;50.588;9.504;2022-09-29T10:41:55;13.70;98.60
44513;DHT22;30219;50.588;9.504;2022-09-29T10:44:21;13.40;99.80
44513;DHT22;30219;50.588;9.504;2022-09-29T10:46:51;13.50;98.90
44513;DHT22;30219;50.588;9.504;2022-09-29T10:49:22;13.60;99.00
44513;DHT22;30219;50.588;9.504;2022-09-29T10:52:05;13.40;99.40
44513;DHT22;30219;50.588;9.504;2022-09-29T10:54:34;13.30;99.90
44513;DHT22;30219;50.588;9.504;2022-09-29T10:57:13;13.40;99.90
44513;DHT22;30219;50.588;9.504;2022-09-29T10:59:51;13.60;99.90
44513;DHT22;30219;50.588;9.504;2022-09-29T11:02:25;13.60;99.90
44513;DHT22;30219;50.588;9.504;2022-09-29T11:04:53;13.50;99.90
44513;DHT22;30219;50.588;9.504;2022-09-29T11:07:20;13.50;99.90
44513;DHT22;30219;50.588;9.504;2022-09-29T11:09:46;13.60;99.90
44513;DHT22;30219;50.588;9.504;2022-09-29T11:12:31;13.80;99.90
44513;DHT22;30219;50.588;9.504;2022-09-29T11:14:59;14.00;99.90
44513;DHT22;30219;50.588;9.504;2022-09-29T11:17:28;13.80;99.90
44513;DHT22;30219;50.588;9.504;2022-09-29T11:19:59;13.50;99.90
44513;DHT22;30219;50.588;9.504;2022-09-29T11:36:28;12.70;99.90
44513;DHT22;30219;50.588;9.504;2022-09-29T11:43:54;12.10;99.90
44513;DHT22;30219;50.588;9.504;2022-09-29T11:57:42;11.40;99.90
44513;DHT22;30219;50.588;9.504;2022-09-29T12:00:18;11.60;99.90
44513;DHT22;30219;50.588;9.504;2022-09-29T12:03:18;11.80;99.90
44513;DHT22;30219;50.588;9.504;2022-09-29T12:08:52;11.80;99.90
44513;DHT22;30219;50.588;9.504;2022-09-29T12:17:04;11.90;99.90
44513;DHT22;30219;50.588;9.504;2022-09-29T12:19:37;12.20;99.90
44513;DHT22;30219;50.588;9.504;2022-09-29T12:22:07;12.10;99.90
44513;DHT22;30219;50.588;9.504;2022-09-29T12:24:47;12.00;99.90
44513;DHT22;30219;50.588;9.504;2022-09-29T12:30:01;12.50;99.90
44513;DHT22;30219;50.588;9.504;2022-09-29T12:32:36;12.60;99.90
44513;DHT22;30219;50.588;9.504;2022-09-29T12:35:14;12.80;99.90
44513;DHT22;30219;50.588;9.504;2022-09-29T12:37:47;12.90;99.90
44513;DHT22;30219;50.588;9.504;2022-09-29T12:40:18;13.00;99.90
44513;DHT22;30219;50.588;9.504;2022-09-29T12:45:40;13.20;99.90
44513;DHT22;30219;50.588;9.504;2022-09-29T12:48:26;13.30;99.90
44513;DHT22;30219;50.588;9.504;2022-09-29T12:51:07;13.30;99.90
44513;DHT22;30219;50.588;9.504;2022-09-29T12:54:20;13.40;99.90
44513;DHT22;30219;50.588;9.504;2022-09-29T13:24:27;13.60;99.90
44513;DHT22;30219;50.588;9.504;2022-09-29T13:27:19;13.60;99.90
44513;DHT22;30219;50.588;9.504;2022-09-29T13:30:13;13.60;99.90
44513;DHT22;30219;50.588;9.504;2022-09-29T13:35:17;13.50;99.90
44513;DHT22;30219;50.588;9.504;2022-09-29T13:37:53;13.50;99.90
44513;DHT22;30219;50.588;9.504;2022-09-29T13:40:22;13.40;99.90
44513;DHT22;30219;50.588;9.504;2022-09-29T13:42:49;13.60;99.90
44513;DHT22;30219;50.588;9.504;2022-09-29T13:47:50;13.70;99.90
44513;DHT22;30219;50.588;9.504;2022-09-29T13:58:25;13.80;99.90
44513;DHT22;30219;50.588;9.504;2022-09-29T14:00:52;13.60;99.90
44513;DHT22;30219;50.588;9.504;2022-09-29T14:03:43;13.40;99.90
44513;DHT22;30219;50.588;9.504;2022-09-29T14:06:22;13.10;99.90
44513;DHT22;30219;50.588;9.504;2022-09-29T14:09:06;12.80;99.90
44513;DHT22;30219;50.588;9.504;2022-09-29T14:11:49;12.50;99.90
44513;DHT22;30219;50.588;9.504;2022-09-29T14:14:17;12.70;99.90
44513;DHT22;30219;50.588;9.504;2022-09-29T14:17:10;12.60;99.90
44513;DHT22;30219;50.588;9.504;2022-09-29T14:27:44;11.60;99.90
44513;DHT22;30219;50.588;9.504;2022-09-29T14:30:19;11.70;99.90
44513;DHT22;30219;50.588;9.504;2022-09-29T14:33:08;11.70;99.90
44513;DHT22;30219;50.588;9.504;2022-09-29T14:35:37;11.70;99.90
44513;DHT22;30219;50.588;9.504;2022-09-29T14:38:24;11.60;99.90
44513;DHT22;30219;50.588;9.504;2022-09-29T14:43:36;11.80;99.90
44513;DHT22;30219;50.588;9.504;2022-09-29T14:58:13;11.50;99.90
44513;DHT22;30219;50.588;9.504;2022-09-29T15:03:38;11.00;99.90
44513;DHT22;30219;50.588;9.504;2022-09-29T15:06:26;11.00;99.90
44513;DHT22;30219;50.588;9.504;2022-09-29T15:09:01;11.00;99.90
44513;DHT22;30219;50.588;9.504;2022-09-29T15:11:33;10.90;99.90
44513;DHT22;30219;50.588;9.504;2022-09-29T15:14:20;10.90;99.90
44513;DHT22;30219;50.588;9.504;2022-09-29T15:17:14;10.90;99.90
44513;DHT22;30219;50.588;9.504;2022-09-29T15:19:47;11.00;99.90
44513;DHT22;30219;50.588;9.504;2022-09-29T15:27:57;11.30;99.90
44513;DHT22;30219;50.588;9.504;2022-09-29T15:30:24;11.40;99.90
44513;DHT22;30219;50.588;9.504;2022-09-29T15:32:52;11.50;99.90
44513;DHT22;30219;50.588;9.504;2022-09-29T15:35:23;11.60;99.90
44513;DHT22;30219;50.588;9.504;2022-09-29T15:40:19;11.90;99.90
44513;DHT22;30219;50.588;9.504;2022-09-29T15:42:46;11.90;99.90
44513;DHT22;30219;50.588;9.504;2022-09-29T15:45:23;12.00;99.90
44513;DHT22;30219;50.588;9.504;2022-09-29T15:48:01;12.10;99.90
44513;DHT22;30219;50.588;9.504;2022-09-29T15:50:29;11.90;99.90
44513;DHT22;30219;50.588;9.504;2022-09-29T15:52:57;11.70;99.90
44513;DHT22;30219;50.588;9.504;2022-09-29T15:55:28;11.60;99.90
44513;DHT22;30219;50.588;9.504;2022-09-29T15:57:54;11.60;99.90
44513;DHT22;30219;50.588;9.504;2022-09-29T16:02:49;11.60;99.90
44513;DHT22;30219;50.588;9.504;2022-09-29T16:05:21;11.60;99.90
44513;DHT22;30219;50.588;9.504;2022-09-29T16:08:12;11.60;99.90
44513;DHT22;30219;50.588;9.504;2022-09-29T16:10:47;11.30;99.90
44513;DHT22;30219;50.588;9.504;2022-09-29T16:13:22;11.00;99.90
44513;DHT22;30219;50.588;9.504;2022-09-29T16:15:51;10.80;99.90
44513;DHT22;30219;50.588;9.504;2022-09-29T16:18:25;10.60;99.90
44513;DHT22;30219;50.588;9.504;2022-09-29T16:20:54;10.40;99.90
44513;DHT22;30219;50.588;9.504;2022-09-29T16:28:35;10.30;99.90
44513;DHT22;30219;50.588;9.504;2022-09-29T16:31:03;10.30;99.90
44513;DHT22;30219;50.588;9.504;2022-09-29T16:33:32;10.30;99.90
44513;DHT22;30219;50.588;9.504;2022-09-29T16:36:08;10.20;99.90
44513;DHT22;30219;50.588;9.504;2022-09-29T16:38:42;10.10;99.90
44513;DHT22;30219;50.588;9.504;2022-09-29T16:41:19;9.90;99.90
44513;DHT22;30219;50.588;9.504;2022-09-29T16:43:45;9.90;99.90
44513;DHT22;30219;50.588;9.504;2022-09-29T16:46:17;9.90;99.90
44513;DHT22;30219;50.588;9.504;2022-09-29T16:48:44;9.80;99.90
44513;DHT22;30219;50.588;9.504;2022-09-29T16:51:17;9.70;99.90
44513;DHT22;30219;50.588;9.504;2022-09-29T16:53:43;9.70;99.90
44513;DHT22;30219;50.588;9.504;2022-09-29T16:56:17;9.80;99.90
44513;DHT22;30219;50.588;9.504;2022-09-29T16:58:44;9.90;99.90
44513;DHT22;30219;50.588;9.504;2022-09-29T17:01:10;9.90;99.90
44513;DHT22;30219;50.588;9.504;2022-09-29T17:03:38;10.00;99.90
44513;DHT22;30219;50.588;9.504;2022-09-29T17:06:03;9.90;99.90
44513;DHT22;30219;50.588;9.504;2022-09-29T17:08:31;9.90;99.90
44513;DHT22;30219;50.588;9.504;2022-09-29T17:10:59;9.70;99.90
44513;DHT22;30219;50.588;9.504;2022-09-29T17:13:27;9.50;99.90
44513;DHT22;30219;50.588;9.504;2022-09-29T17:15:55;9.40;99.90
44513;DHT22;30219;50.588;9.504;2022-09-29T17:18:21;9.30;99.90
44513;DHT22;30219;50.588;9.504;2022-09-29T17:20:49;9.30;99.90
44513;DHT22;30219;50.588;9.504;2022-09-29T17:23:15;9.30;99.90
44513;DHT22;30219;50.588;9.504;2022-09-29T17:25:44;9.30;99.90
44513;DHT22;30219;50.588;9.504;2022-09-29T17:28:18;9.30;99.90
44513;DHT22;30219;50.588;9.504;2022-09-29T17:30:46;9.20;99.90
44513;DHT22;30219;50.588;9.504;2022-09-29T17:33:14;9.10;99.90
44513;DHT22;30219;50.588;9.504;2022-09-29T17:35:43;9.10;99.90
44513;DHT22;30219;50.588;9.504;2022-09-29T17:38:11;9.00;99.90
44513;DHT22;30219;50.588;9.504;2022-09-29T17:40:42;8.70;99.90
44513;DHT22;30219;50.588;9.504;2022-09-29T17:43:10;8.40;99.90
44513;DHT22;30219;50.588;9.504;2022-09-29T17:45:35;8.20;99.90
44513;DHT22;30219;50.588;9.504;2022-09-29T17:48:06;8.20;99.90
44513;DHT22;30219;50.588;9.504;2022-09-29T17:50:33;8.20;99.90
44513;DHT22;30219;50.588;9.504;2022-09-29T17:53:06;8.20;99.90
44513;DHT22;30219;50.588;9.504;2022-09-29T17:55:33;8.30;99.90
44513;DHT22;30219;50.588;9.504;2022-09-29T17:58:00;8.30;99.90
44513;DHT22;30219;50.588;9.504;2022-09-29T18:00:30;8.20;99.90
44513;DHT22;30219;50.588;9.504;2022-09-29T18:02:57;8.30;99.90
44513;DHT22;30219;50.588;9.504;2022-09-29T18:05:25;8.20;99.90
44513;DHT22;30219;50.588;9.504;2022-09-29T18:07:53;8.10;99.90
44513;DHT22;30219;50.588;9.504;2022-09-29T18:10:46;8.00;99.90
44513;DHT22;30219;50.588;9.504;2022-09-29T18:13:13;8.00;99.90
44513;DHT22;30219;50.588;9.504;2022-09-29T18:15:39;7.90;99.90
44513;DHT22;30219;50.588;9.504;2022-09-29T18:18:05;7.90;99.90
44513;DHT22;30219;50.588;9.504;2022-09-29T18:20:33;7.90;99.90
44513;DHT22;30219;50.588;9.504;2022-09-29T18:23:00;7.80;99.90
44513;DHT22;30219;50.588;9.504;2022-09-29T18:25:31;7.80;99.90
44513;DHT22;30219;50.588;9.504;2022-09-29T18:27:58;7.90;99.90
44513;DHT22;30219;50.588;9.504;2022-09-29T18:30:28;7.70;99.90
44513;DHT22;30219;50.588;9.504;2022-09-29T18:32:55;7.70;99.90
44513;DHT22;30219;50.588;9.504;2022-09-29T18:35:29;7.60;99.90
44513;DHT22;30219;50.588;9.504;2022-09-29T18:37:55;7.60;99.90
44513;DHT22;30219;50.588;9.504;2022-09-29T18:40:23;7.60;99.90
44513;DHT22;30219;50.588;9.504;2022-09-29T18:42:50;7.50;99.90
44513;DHT22;30219;50.588;9.504;2022-09-29T18:45:23;7.30;99.90
44513;DHT22;30219;50.588;9.504;2022-09-29T18:47:51;7.20;99.90
44513;DHT22;30219;50.588;9.504;2022-09-29T18:50:22;7.10;99.90
44513;DHT22;30219;50.588;9.504;2022-09-29T18:52:49;7.10;99.90
44513;DHT22;30219;50.588;9.504;2022-09-29T18:55:17;7.10;99.90
44513;DHT22;30219;50.588;9.504;2022-09-29T18:57:44;7.10;99.90
44513;DHT22;30219;50.588;9.504;2022-09-29T19:00:16;6.80;99.90